Time;durP1;ratioP1;P1;durP2;ratioP2;P2;SDS_P1;SDS_P2;PMS_P1;PMS_P2;Temp;Humidity;BMP_temperature;BMP_pressure;BME280_temperature;BME280_humidity;BME280_pressure;Samples;Min_cycle;Max_cycle;Signal;HPM_P1;HPM_P2
2023/05/09 00:02:28;;;;;;;10.07;9.23;;;;;;;14.75;58.63;95937.03;4890889;29;20206;-90
2023/05/09 00:04:57;;;;;;;10.10;9.13;;;;;;;14.79;58.54;95938.25;4947665;28;20575;-90
2023/05/09 00:07:24;;;;;;;10.15;8.88;;;;;;;14.83;58.99;95942.84;4983987;28;20231;-90
2023/05/09 00:09:55;;;;;;;9.73;8.82;;;;;;;14.83;57.89;95936.84;4987037;28;20203;-90
2023/05/09 00:12:22;;;;;;;10.43;9.43;;;;;;;14.78;58.83;95931.47;4988268;28;20290;-90
2023/05/09 00:22:26;;;;;;;11.13;10.02;;;;;;;14.80;58.75;95926.91;4830114;29;20779;-90
2023/05/09 00:35:10;;;;;;;10.77;9.73;;;;;;;14.62;59.33;95922.25;4843703;29;20242;-90
2023/05/09 00:37:36;;;;;;;9.80;8.98;;;;;;;14.48;59.98;95920.56;4893537;29;20228;-90
2023/05/09 00:40:05;;;;;;;9.95;9.00;;;;;;;14.49;59.36;95919.56;4909193;29;20936;-90
2023/05/09 00:42:34;;;;;;;9.45;8.65;;;;;;;14.53;59.81;95918.22;4908769;29;20211;-90
2023/05/09 00:45:39;;;;;;;9.68;8.73;;;;;;;14.51;59.74;95917.59;4960656;28;20642;-90
2023/05/09 00:48:06;;;;;;;8.98;8.18;;;;;;;14.66;59.54;95923.44;4989792;28;20234;-89
2023/05/09 00:50:34;;;;;;;9.52;8.73;;;;;;;14.69;59.26;95917.06;4991730;28;20233;-90
2023/05/09 00:53:04;;;;;;;10.32;9.43;;;;;;;14.42;59.82;95918.78;4992370;28;20235;-89
2023/05/09 00:55:31;;;;;;;9.20;8.35;;;;;;;14.47;60.14;95917.19;4992278;28;20207;-89
2023/05/09 00:57:58;;;;;;;9.50;8.70;;;;;;;14.63;60.07;95917.84;4992507;28;20689;-90
2023/05/09 01:00:24;;;;;;;10.10;9.20;;;;;;;14.76;59.54;95905.75;4992237;28;20210;-89
2023/05/09 01:03:02;;;;;;;8.93;8.13;;;;;;;14.83;59.39;95903.97;4991860;28;20211;-90
2023/05/09 01:05:39;;;;;;;9.60;8.70;;;;;;;14.56;59.52;95907.47;4992421;28;20211;-90
2023/05/09 01:08:16;;;;;;;8.70;7.88;;;;;;;14.44;60.07;95906.38;4992097;28;20222;-90
2023/05/09 01:10:56;;;;;;;9.98;8.98;;;;;;;14.33;60.29;95904.31;4991213;28;20692;-90
2023/05/09 01:13:30;;;;;;;9.63;8.77;;;;;;;14.28;60.59;95898.91;4991945;28;20199;-90
2023/05/09 01:16:04;;;;;;;9.82;9.00;;;;;;;14.16;61.39;95888.31;4992039;28;20207;-90
2023/05/09 01:18:38;;;;;;;9.75;8.85;;;;;;;14.00;62.16;95891.19;4993085;28;20215;-90
2023/05/09 01:21:11;;;;;;;10.05;9.15;;;;;;;13.87;62.95;95888.50;4991614;28;20199;-90
2023/05/09 01:24:22;;;;;;;9.45;8.55;;;;;;;14.02;62.51;95882.25;4991590;28;20195;-90
2023/05/09 01:27:25;;;;;;;10.15;9.25;;;;;;;14.09;62.36;95884.88;4985995;28;20203;-89
2023/05/09 01:29:57;;;;;;;9.80;8.90;;;;;;;13.99;62.50;95884.41;4986318;28;20679;-90
2023/05/09 01:32:27;;;;;;;10.15;9.18;;;;;;;13.80;62.76;95876.34;4992787;28;20211;-89
2023/05/09 01:34:56;;;;;;;9.68;8.55;;;;;;;13.85;62.36;95875.78;4992142;28;20207;-90
2023/05/09 01:37:28;;;;;;;10.80;9.40;;;;;;;13.88;62.82;95875.38;4991393;28;20621;-89
2023/05/09 01:39:58;;;;;;;10.15;9.15;;;;;;;13.83;62.93;95885.53;4991691;28;20214;-90
2023/05/09 01:42:27;;;;;;;9.90;8.90;;;;;;;13.88;63.02;95888.31;5000317;28;20218;-89
2023/05/09 01:44:56;;;;;;;9.68;8.77;;;;;;;13.99;62.26;95885.22;4991058;28;20685;-90
2023/05/09 01:47:27;;;;;;;9.90;9.00;;;;;;;13.89;61.22;95884.75;4990576;28;20665;-90
2023/05/09 01:49:55;;;;;;;9.80;8.93;;;;;;;13.74;61.19;95876.28;4992237;28;20621;-89
2023/05/09 01:52:25;;;;;;;10.93;8.88;;;;;;;13.65;61.89;95875.66;4991225;28;20211;-89
2023/05/09 01:54:59;;;;;;;10.25;8.93;;;;;;;13.58;62.46;95869.63;4991273;28;20195;-90
2023/05/09 01:57:27;;;;;;;9.38;8.48;;;;;;;13.60;62.36;95877.19;4990491;28;20234;-90
2023/05/09 01:59:55;;;;;;;9.52;8.55;;;;;;;13.57;62.45;95870.59;4990575;28;20199;-89
2023/05/09 02:02:23;;;;;;;9.32;8.43;;;;;;;13.47;62.74;95868.31;4990753;28;20234;-89
2023/05/09 02:04:56;;;;;;;9.02;8.20;;;;;;;13.52;61.95;95860.00;4991202;28;20739;-89
2023/05/09 02:07:24;;;;;;;10.75;8.85;;;;;;;13.52;62.46;95865.19;4990927;28;20191;-90
2023/05/09 02:09:52;;;;;;;9.68;8.77;;;;;;;13.37;62.73;95873.03;4990654;28;20219;-89
2023/05/09 02:12:19;;;;;;;9.98;9.07;;;;;;;13.37;62.82;95862.69;4991740;28;20208;-89
2023/05/09 02:14:46;;;;;;;10.10;9.10;;;;;;;13.40;63.20;95862.31;4990713;28;20207;-90
2023/05/09 02:17:16;;;;;;;9.53;8.63;;;;;;;13.47;63.28;95857.97;4990647;28;20403;-89
2023/05/09 02:19:43;;;;;;;9.30;8.37;;;;;;;13.43;63.02;95858.56;4991552;28;20203;-89
2023/05/09 02:22:14;;;;;;;9.90;9.00;;;;;;;13.46;62.76;95853.00;4990202;28;20204;-88
2023/05/09 02:24:44;;;;;;;9.57;8.77;;;;;;;13.45;62.82;95857.38;4990556;28;20215;-91
2023/05/09 02:27:12;;;;;;;9.60;8.60;;;;;;;13.51;62.50;95860.19;4990075;28;20211;-89
2023/05/09 02:29:45;;;;;;;9.90;9.00;;;;;;;13.50;62.72;95854.22;4990112;28;20223;-91
2023/05/09 02:32:16;;;;;;;10.13;9.13;;;;;;;13.46;62.29;95851.22;4990204;28;20211;-90
2023/05/09 02:34:45;;;;;;;12.77;9.33;;;;;;;13.46;62.70;95846.06;4989768;28;20217;-90
2023/05/09 02:37:13;;;;;;;10.00;9.10;;;;;;;13.40;62.86;95846.00;4992749;28;20235;-91
2023/05/09 02:39:40;;;;;;;10.53;9.53;;;;;;;13.56;62.92;95848.31;5002298;28;20225;-90
2023/05/09 02:42:09;;;;;;;11.23;10.10;;;;;;;13.45;62.09;95849.63;4994274;28;20206;-91
2023/05/09 02:44:37;;;;;;;11.10;10.00;;;;;;;13.40;62.59;95843.41;4989890;28;20195;-90
2023/05/09 02:47:06;;;;;;;11.27;9.50;;;;;;;13.42;62.90;95844.03;4990208;28;20732;-91
2023/05/09 02:49:34;;;;;;;11.60;10.50;;;;;;;13.35;62.53;95843.16;4990029;28;20223;-90
2023/05/09 02:52:00;;;;;;;11.23;10.13;;;;;;;13.36;63.15;95842.97;4989936;28;20207;-90
2023/05/09 02:54:29;;;;;;;10.47;9.43;;;;;;;13.35;62.95;95841.38;4990070;28;20204;-90
2023/05/09 02:56:56;;;;;;;13.30;9.83;;;;;;;13.39;62.96;95829.69;4989804;28;20206;-91
2023/05/09 02:59:24;;;;;;;11.23;10.13;;;;;;;13.28;63.27;95837.94;4989442;28;20595;-90
2023/05/09 03:01:51;;;;;;;10.80;9.70;;;;;;;13.42;62.98;95836.25;4989074;28;20286;-90
2023/05/09 03:04:18;;;;;;;12.40;9.97;;;;;;;13.50;63.14;95836.09;4990313;28;20688;-91
2023/05/09 03:06:46;;;;;;;11.23;10.17;;;;;;;13.37;63.64;95836.81;4989654;28;20203;-90
2023/05/09 03:09:12;;;;;;;10.47;9.47;;;;;;;13.34;63.52;95831.22;4988920;28;20231;-91
2023/05/09 03:11:39;;;;;;;10.57;9.57;;;;;;;13.41;62.94;95830.28;4989550;28;20207;-91
2023/05/09 03:14:07;;;;;;;11.17;10.20;;;;;;;13.36;63.35;95837.00;4989377;28;20199;-90
2023/05/09 03:16:36;;;;;;;10.57;9.57;;;;;;;13.30;63.28;95830.78;4989105;28;20199;-90
2023/05/09 03:19:02;;;;;;;10.23;9.23;;;;;;;13.28;63.57;95830.16;4988940;28;20887;-91
2023/05/09 03:21:30;;;;;;;10.97;9.97;;;;;;;13.38;63.48;95841.00;4989135;28;20298;-91
2023/05/09 03:24:00;;;;;;;10.77;9.83;;;;;;;13.32;63.55;95835.78;4989938;28;20207;-90
2023/05/09 03:26:27;;;;;;;11.27;9.53;;;;;;;13.29;64.33;95831.78;4989133;28;20287;-90
2023/05/09 03:28:53;;;;;;;11.10;10.10;;;;;;;13.29;64.41;95829.19;4989088;28;20228;-91
2023/05/09 03:31:20;;;;;;;10.90;9.80;;;;;;;13.29;64.23;95825.78;4989513;28;20214;-90
2023/05/09 03:33:46;;;;;;;10.63;9.53;;;;;;;13.27;64.53;95828.59;4996525;28;20203;-90
2023/05/09 03:36:12;;;;;;;10.97;9.87;;;;;;;13.37;64.54;95830.84;5000428;28;20240;-91
2023/05/09 03:38:39;;;;;;;11.73;10.63;;;;;;;13.36;64.70;95829.25;5008866;28;20858;-91
2023/05/09 03:41:07;;;;;;;11.47;10.47;;;;;;;13.29;65.24;95823.22;5001987;28;20302;-90
2023/05/09 03:43:33;;;;;;;10.83;9.83;;;;;;;13.37;64.81;95831.66;4988234;28;20196;-90
2023/05/09 03:46:00;;;;;;;11.33;10.23;;;;;;;13.18;65.79;95829.69;4988930;28;20209;-90
2023/05/09 03:48:32;;;;;;;11.53;10.43;;;;;;;13.26;65.68;95833.97;4979571;28;20259;-91
2023/05/09 03:51:01;;;;;;;13.00;10.50;;;;;;;13.27;65.62;95823.44;4976531;28;20228;-90
2023/05/09 03:53:31;;;;;;;11.90;10.80;;;;;;;13.23;65.62;95827.38;4989187;28;20225;-90
2023/05/09 03:55:57;;;;;;;12.37;11.07;;;;;;;12.91;66.96;95831.22;4988753;28;20199;-91
2023/05/09 03:58:25;;;;;;;12.00;10.90;;;;;;;12.93;66.91;95824.06;4989360;28;20227;-90
2023/05/09 04:00:52;;;;;;;11.70;10.50;;;;;;;12.99;66.88;95828.50;4988703;28;20701;-90
2023/05/09 04:03:18;;;;;;;12.00;10.83;;;;;;;13.10;66.53;95822.03;4988184;28;20207;-89
2023/05/09 04:05:45;;;;;;;11.67;10.47;;;;;;;13.14;66.30;95829.25;4988430;28;20688;-87
2023/05/09 04:08:14;;;;;;;11.73;10.63;;;;;;;13.14;66.29;95831.81;4988347;28;20628;-87
2023/05/09 04:10:41;;;;;;;11.40;10.37;;;;;;;13.11;66.09;95834.78;4988696;28;20222;-88
2023/05/09 04:13:07;;;;;;;12.30;11.10;;;;;;;13.07;65.73;95833.56;4990257;28;20661;-88
2023/05/09 04:15:47;;;;;;;11.60;10.50;;;;;;;12.96;66.19;95834.03;4988228;28;20287;-89
2023/05/09 04:18:14;;;;;;;11.97;10.87;;;;;;;12.92;66.33;95840.56;4988380;28;20913;-89
2023/05/09 04:20:40;;;;;;;12.40;11.10;;;;;;;12.98;65.82;95839.84;4990697;28;20539;-88
2023/05/09 04:23:07;;;;;;;11.67;10.57;;;;;;;13.09;65.80;95841.13;4992363;28;20627;-88
2023/05/09 04:25:34;;;;;;;13.13;10.87;;;;;;;13.01;66.15;95836.88;4992212;28;20254;-89
2023/05/09 04:28:00;;;;;;;11.60;10.50;;;;;;;13.07;66.15;95838.75;4992603;28;20229;-88
2023/05/09 04:30:27;;;;;;;11.77;10.67;;;;;;;13.09;66.41;95844.50;4998472;28;20276;-88
2023/05/09 04:32:57;;;;;;;11.97;10.87;;;;;;;13.13;65.69;95843.16;4995695;28;20200;-89
2023/05/09 04:35:38;;;;;;;11.97;10.77;;;;;;;13.18;66.39;95832.28;4992666;28;20218;-88
2023/05/09 04:38:04;;;;;;;11.63;10.43;;;;;;;13.20;65.95;95832.09;4997850;28;20500;-90
2023/05/09 04:40:32;;;;;;;12.33;11.10;;;;;;;13.23;66.20;95827.38;4995834;28;20199;-90
2023/05/09 04:42:58;;;;;;;11.90;10.70;;;;;;;13.26;66.31;95829.59;4975817;28;20235;-90
2023/05/09 04:45:34;;;;;;;11.97;10.87;;;;;;;13.37;65.68;95821.31;4975530;28;20230;-90
2023/05/09 04:48:05;;;;;;;11.70;10.60;;;;;;;13.34;65.91;95828.63;4984232;28;20231;-90
2023/05/09 04:50:31;;;;;;;11.97;10.73;;;;;;;13.39;64.76;95813.34;4995333;28;20310;-91
2023/05/09 04:52:58;;;;;;;12.20;10.93;;;;;;;13.44;65.78;95822.16;5002958;28;20226;-90
2023/05/09 04:55:25;;;;;;;12.17;10.87;;;;;;;13.46;65.48;95817.59;5005658;28;20212;-91
2023/05/09 04:58:03;;;;;;;12.80;11.40;;;;;;;13.46;64.55;95822.78;5002348;28;20219;-91
2023/05/09 05:00:30;;;;;;;11.40;10.40;;;;;;;13.53;64.57;95827.97;5003116;28;20199;-91
2023/05/09 05:02:56;;;;;;;15.10;13.60;;;;;;;13.63;64.46;95823.28;5001205;28;20208;-91
2023/05/09 05:05:24;;;;;;;28.52;25.20;;;;;;;13.67;63.85;95823.69;5002862;28;20211;-92
2023/05/09 05:07:52;;;;;;;17.80;12.77;;;;;;;13.77;65.97;95816.41;5001672;28;20658;-90
2023/05/09 05:10:29;;;;;;;10.97;9.80;;;;;;;13.82;64.49;95814.84;5000975;28;20226;-91
2023/05/09 05:12:55;;;;;;;13.55;10.98;;;;;;;13.95;65.71;95821.06;5002316;28;20231;-90
2023/05/09 05:15:22;;;;;;;11.20;10.20;;;;;;;13.91;62.26;95812.88;5018012;28;20215;-90
2023/05/09 05:17:48;;;;;;;11.20;10.00;;;;;;;13.99;65.21;95817.13;5024858;28;20259;-91
2023/05/09 05:20:15;;;;;;;10.75;9.65;;;;;;;14.10;63.72;95824.31;5003178;28;20286;-90
2023/05/09 05:22:53;;;;;;;10.93;9.90;;;;;;;14.21;61.50;95812.63;4996246;28;20203;-91
2023/05/09 05:25:21;;;;;;;16.52;14.75;;;;;;;14.20;62.21;95813.63;4999202;28;20195;-90
2023/05/09 05:27:47;;;;;;;53.85;45.53;;;;;;;14.16;61.99;95814.00;5010978;28;20246;-90
2023/05/09 05:30:15;;;;;;;23.70;20.85;;;;;;;14.22;61.75;95809.84;5023928;28;20321;-91
2023/05/09 05:32:51;;;;;;;12.32;11.13;;;;;;;14.35;61.60;95815.06;5023080;28;20424;-91
2023/05/09 05:35:24;;;;;;;10.70;9.70;;;;;;;14.27;60.37;95804.06;5023761;28;20208;-90
2023/05/09 05:38:23;;;;;;;11.20;10.13;;;;;;;14.32;60.62;95812.88;5021598;28;20230;-91
2023/05/09 05:40:49;;;;;;;10.82;9.75;;;;;;;14.30;60.63;95814.06;5017938;28;21003;-90
2023/05/09 05:43:16;;;;;;;10.75;9.60;;;;;;;14.30;61.13;95814.84;5001040;28;20210;-91
2023/05/09 05:45:50;;;;;;;10.30;9.40;;;;;;;14.37;61.11;95809.69;4991107;28;20231;-91
2023/05/09 05:48:17;;;;;;;10.55;9.55;;;;;;;14.51;60.21;95806.19;5005026;28;20219;-92
2023/05/09 05:50:43;;;;;;;10.60;9.70;;;;;;;14.50;60.20;95794.22;5001732;28;20222;-91
2023/05/09 05:53:13;;;;;;;10.93;10.00;;;;;;;14.50;59.49;95805.38;4993464;28;20704;-90
2023/05/09 05:55:52;;;;;;;11.52;10.43;;;;;;;14.56;59.97;95801.22;4994157;28;20234;-90
2023/05/09 05:58:18;;;;;;;11.30;10.30;;;;;;;14.65;59.48;95799.22;4997177;28;20219;-90
2023/05/09 06:01:14;;;;;;;11.32;10.18;;;;;;;14.56;59.50;95800.41;4996367;28;20582;-91
2023/05/09 06:03:44;;;;;;;13.10;9.55;;;;;;;14.57;59.69;95795.03;5000666;28;20666;-90
2023/05/09 06:06:11;;;;;;;11.18;10.02;;;;;;;14.80;59.83;95787.72;5002241;28;20720;-90
2023/05/09 06:08:37;;;;;;;14.20;10.32;;;;;;;14.88;59.28;95791.09;5008581;28;20223;-91
2023/05/09 06:11:23;;;;;;;11.40;10.40;;;;;;;15.05;59.86;95779.34;5012134;28;20214;-90
2023/05/09 06:13:49;;;;;;;10.20;9.32;;;;;;;15.20;58.74;95780.72;5012976;28;20206;-90
2023/05/09 06:16:28;;;;;;;;;;;;;;;;;;;;;
2023/05/09 06:19:15;;;;;;;11.30;10.20;;;;;;;15.35;58.93;95780.56;5013101;28;20209;-90
2023/05/09 06:21:41;;;;;;;11.48;10.23;;;;;;;15.41;58.41;95773.72;5165182;23;20309;-89
2023/05/09 06:24:17;;;;;;;11.07;9.95;;;;;;;15.46;58.82;95774.72;5061159;28;20183;-90
2023/05/09 06:26:45;;;;;;;12.35;11.25;;;;;;;15.43;58.73;95776.94;5067583;28;20232;-88
2023/05/09 06:29:14;;;;;;;11.52;10.45;;;;;;;15.43;59.08;95775.13;5061878;28;20316;-91
2023/05/09 06:31:55;;;;;;;11.52;10.43;;;;;;;15.49;59.14;95773.53;5081974;28;20201;-91
2023/05/09 06:34:21;;;;;;;11.75;10.65;;;;;;;15.51;59.26;95774.13;5082112;28;20196;-91
2023/05/09 06:36:48;;;;;;;10.68;9.68;;;;;;;15.72;58.21;95771.34;5079944;28;20193;-92
2023/05/09 06:39:14;;;;;;;11.23;10.23;;;;;;;15.75;58.32;95768.34;5078532;28;20715;-92
2023/05/09 06:41:41;;;;;;;11.70;10.60;;;;;;;15.61;58.47;95763.34;5061383;28;20280;-90
2023/05/09 06:44:23;;;;;;;11.10;10.00;;;;;;;15.73;58.59;95766.94;5057845;28;20193;-88
2023/05/09 06:46:50;;;;;;;11.77;10.68;;;;;;;15.84;58.87;95764.50;5058322;28;20201;-90
2023/05/09 06:49:16;;;;;;;11.55;10.38;;;;;;;16.00;58.11;95760.63;5057249;28;20308;-90
2023/05/09 06:51:43;;;;;;;11.00;10.00;;;;;;;15.94;57.80;95763.28;5055085;28;20197;-91
2023/05/09 06:56:50;;;;;;;13.50;9.48;;;;;;;16.18;58.33;95746.97;5057675;28;20225;-91
2023/05/09 06:59:16;;;;;;;10.60;9.70;;;;;;;16.29;57.54;95743.75;5059049;28;20725;-90
2023/05/09 07:01:47;;;;;;;11.05;10.05;;;;;;;16.31;57.20;95749.53;5051950;28;20820;-90
2023/05/09 07:04:29;;;;;;;11.50;10.30;;;;;;;16.31;57.89;95751.34;5054253;28;20201;-91
2023/05/09 07:06:55;;;;;;;10.85;9.85;;;;;;;16.43;57.67;95749.66;5059782;28;20575;-91
2023/05/09 07:09:26;;;;;;;11.95;10.75;;;;;;;16.51;57.89;95752.03;5056418;28;20253;-91
2023/05/09 07:12:08;;;;;;;11.15;10.02;;;;;;;16.55;56.57;95740.97;5054821;28;20284;-91
2023/05/09 07:14:34;;;;;;;11.35;10.25;;;;;;;16.51;57.15;95741.63;5052915;28;20194;-90
2023/05/09 07:17:02;;;;;;;11.85;10.38;;;;;;;16.46;57.49;95738.84;5053248;28;20198;-90
2023/05/09 07:20:12;;;;;;;11.45;10.35;;;;;;;16.53;57.81;95745.63;5066001;28;20236;-91
2023/05/09 07:25:55;;;;;;;12.20;10.43;;;;;;;16.74;56.51;95728.13;5021894;28;20208;-91
2023/05/09 07:34:05;;;;;;;11.82;10.40;;;;;;;16.92;55.91;95715.97;5029170;28;20271;-91
2023/05/09 07:36:59;;;;;;;11.55;10.45;;;;;;;16.77;56.15;95723.25;5037677;28;20858;-90
2023/05/09 07:45:59;;;;;;;11.48;10.52;;;;;;;16.91;57.36;95710.97;4942100;28;20327;-90
2023/05/09 07:55:43;;;;;;;12.85;10.00;;;;;;;17.78;55.00;95703.94;5027434;28;20296;-91
2023/05/09 08:08:41;;;;;;;10.82;9.90;;;;;;;18.21;54.86;95688.97;4998863;28;20236;-90
2023/05/09 08:14:11;;;;;;;10.00;9.07;;;;;;;18.61;54.42;95685.81;4984236;28;20282;-91
2023/05/09 08:16:37;;;;;;;10.02;9.13;;;;;;;18.69;54.69;95682.88;5055490;28;20284;-91
2023/05/09 08:19:16;;;;;;;9.95;9.00;;;;;;;18.83;54.04;95675.66;5049653;28;20221;-91
2023/05/09 08:21:54;;;;;;;10.23;8.63;;;;;;;19.14;54.04;95677.13;5049620;28;20204;-89
2023/05/09 08:24:22;;;;;;;9.52;8.70;;;;;;;19.29;52.86;95672.22;5048588;28;20198;-90
2023/05/09 08:26:48;;;;;;;10.25;9.35;;;;;;;19.41;52.24;95665.19;5052362;28;20713;-90
2023/05/09 08:29:15;;;;;;;10.82;9.70;;;;;;;19.45;52.57;95676.75;5051036;28;20237;-90
2023/05/09 08:31:41;;;;;;;10.20;8.70;;;;;;;19.41;52.38;95667.81;5049381;28;20937;-90
2023/05/09 08:34:16;;;;;;;9.80;8.90;;;;;;;19.45;52.06;95665.50;5049108;28;20655;-90
2023/05/09 08:36:44;;;;;;;11.02;9.93;;;;;;;19.51;53.23;95657.59;5038168;28;20236;-91
2023/05/09 08:39:34;;;;;;;30.40;27.15;;;;;;;19.69;52.71;95664.47;5049586;28;20252;-90
2023/05/09 09:03:31;;;;;;;10.25;8.77;;;;;;;20.02;51.22;95617.53;4993336;28;20210;-90
2023/05/09 09:08:50;;;;;;;9.13;8.43;;;;;;;20.70;49.69;95610.59;4971969;28;20320;-90
2023/05/09 09:12:14;;;;;;;9.13;8.25;;;;;;;20.95;50.35;95610.97;5045285;28;20221;-90
2023/05/09 09:15:28;;;;;;;9.50;8.63;;;;;;;21.18;48.52;95599.47;5012740;28;20210;-91
2023/05/09 09:18:07;;;;;;;9.75;8.85;;;;;;;21.20;48.82;95604.50;5012691;28;20226;-91
2023/05/09 09:20:38;;;;;;;9.05;8.35;;;;;;;21.31;47.62;95606.22;5012600;28;20226;-90
2023/05/09 09:26:28;;;;;;;9.20;8.40;;;;;;;21.41;48.95;95592.44;4954813;28;20212;-90
2023/05/09 09:29:23;;;;;;;8.90;8.15;;;;;;;21.23;48.13;95596.16;5012894;28;20230;-89
2023/05/09 09:32:05;;;;;;;8.82;8.07;;;;;;;21.45;48.36;95589.09;4988289;28;20658;-89
2023/05/09 09:34:31;;;;;;;9.00;8.13;;;;;;;21.64;47.75;95587.75;5013244;28;20237;-91
2023/05/09 09:37:02;;;;;;;9.27;8.48;;;;;;;21.55;48.51;95573.47;5016248;28;20222;-90
2023/05/09 09:39:29;;;;;;;9.60;8.68;;;;;;;21.65;48.08;95576.22;5014663;28;20226;-90
2023/05/09 09:41:55;;;;;;;27.00;24.33;;;;;;;21.69;47.71;95561.59;5025854;28;20202;-90
2023/05/09 09:44:54;;;;;;;11.32;9.30;;;;;;;21.62;48.26;95563.63;5031526;28;20206;-90
2023/05/09 09:47:49;;;;;;;;;;;;;;;;;;;;;
2023/05/09 09:50:29;;;;;;;8.77;7.90;;;;;;;22.21;46.18;95557.66;5033706;28;20202;-89
2023/05/09 09:53:06;;;;;;;8.50;7.78;;;;;;;22.36;47.20;95548.06;5051129;28;20225;-89
2023/05/09 09:55:48;;;;;;;7.68;7.00;;;;;;;22.47;47.47;95545.53;5050313;28;20206;-90
2023/05/09 09:58:28;;;;;;;8.73;7.93;;;;;;;22.78;46.89;95534.19;5052676;28;20217;-90
2023/05/09 10:01:09;;;;;;;10.00;7.32;;;;;;;22.90;45.96;95537.41;5036727;28;20201;-90
2023/05/09 10:03:42;;;;;;;9.63;8.63;;;;;;;22.88;45.39;95533.47;5031980;28;20206;-90
2023/05/09 10:06:24;;;;;;;7.72;7.00;;;;;;;23.01;46.43;95538.25;5031416;28;20201;-90
2023/05/09 10:08:50;;;;;;;7.63;7.03;;;;;;;22.95;46.30;95526.94;5039580;28;20225;-90
2023/05/09 10:11:17;;;;;;;7.97;7.25;;;;;;;22.96;45.40;95525.88;5030331;28;20233;-90
2023/05/09 10:13:45;;;;;;;8.38;7.68;;;;;;;23.02;44.54;95519.63;5030493;28;20671;-90
2023/05/09 10:18:58;;;;;;;9.23;8.23;;;;;;;22.97;45.25;95509.09;5024057;28;20294;-90
2023/05/09 10:24:53;;;;;;;7.93;7.05;;;;;;;23.12;46.08;95502.31;5007752;28;20202;-90
2023/05/09 10:27:22;;;;;;;7.40;6.70;;;;;;;23.27;44.81;95497.13;4938918;29;20713;-90
2023/05/09 10:33:46;;;;;;;9.00;8.25;;;;;;;23.36;44.33;95485.84;4982923;28;20207;-90
2023/05/09 10:37:13;;;;;;;9.32;8.35;;;;;;;23.22;44.28;95484.78;4967310;28;20208;-90
2023/05/09 10:43:44;;;;;;;9.77;8.80;;;;;;;22.99;45.30;95472.88;4796411;29;20202;-90
2023/05/09 10:46:13;;;;;;;9.20;8.35;;;;;;;23.03;46.33;95465.25;4807003;29;20245;-90
2023/05/09 10:48:40;;;;;;;12.35;8.05;;;;;;;23.22;46.26;95461.13;4873676;29;20230;-90
2023/05/09 10:51:33;;;;;;;9.50;8.60;;;;;;;23.22;45.35;95450.63;4969361;28;20678;-89
2023/05/09 10:54:27;;;;;;;8.90;8.10;;;;;;;23.46;45.53;95450.16;5048633;28;20208;-91
2023/05/09 10:56:55;;;;;;;10.30;8.23;;;;;;;23.58;45.49;95445.44;5050053;28;20213;-90
2023/05/09 11:03:06;;;;;;;9.60;8.45;;;;;;;23.31;44.13;95430.66;5012319;28;20310;-92
2023/05/09 11:05:45;;;;;;;9.60;8.77;;;;;;;22.81;45.31;95423.44;5031490;28;20205;-91
2023/05/09 11:19:05;;;;;;;8.52;7.72;;;;;;;23.08;45.80;95395.16;1827360;22;20309;-91
2023/05/09 11:21:59;;;;;;;38.92;34.70;;;;;;;23.33;45.67;95389.16;5030685;28;20217;-90
2023/05/09 11:24:29;;;;;;;9.02;8.20;;;;;;;23.12;45.39;95398.03;5031154;28;20683;-91
2023/05/09 11:27:29;;;;;;;9.13;8.43;;;;;;;22.91;46.05;95380.66;5031080;28;20207;-90
2023/05/09 11:34:23;;;;;;;9.32;8.52;;;;;;;23.11;44.74;95385.16;4990556;28;20199;-90
2023/05/09 11:43:25;;;;;;;10.45;9.55;;;;;;;22.92;45.33;95367.25;4910826;29;20233;-90
2023/05/09 11:46:22;;;;;;;9.23;8.43;;;;;;;23.14;45.86;95366.25;4929700;29;20229;-90
2023/05/09 11:48:49;;;;;;;10.90;9.77;;;;;;;23.23;45.24;95360.25;4951119;28;20231;-90
2023/05/09 11:57:26;;;;;;;10.43;9.52;;;;;;;23.43;45.80;95354.22;4970810;28;20271;-90
2023/05/09 11:59:55;;;;;;;15.63;10.00;;;;;;;23.57;45.38;95354.50;5022489;28;20638;-91
2023/05/09 12:02:45;;;;;;;13.52;12.25;;;;;;;23.56;44.79;95345.03;5033681;28;20259;-89
2023/05/09 12:05:42;;;;;;;13.82;12.57;;;;;;;23.55;45.47;95339.00;5049348;28;20236;-89
2023/05/09 12:08:09;;;;;;;17.38;15.80;;;;;;;23.62;45.40;95338.75;4947435;28;20275;-90
2023/05/09 12:10:38;;;;;;;12.20;11.20;;;;;;;23.80;45.84;95332.16;5023149;28;20740;-91
2023/05/09 12:13:04;;;;;;;10.50;9.48;;;;;;;23.99;45.31;95331.31;5029023;28;20197;-91
2023/05/09 12:15:44;;;;;;;11.50;10.20;;;;;;;24.15;44.24;95324.16;5028796;28;20205;-89
2023/05/09 12:18:11;;;;;;;10.52;9.63;;;;;;;24.21;44.54;95309.16;5028609;28;20881;-91
2023/05/09 12:20:48;;;;;;;11.65;10.65;;;;;;;24.10;43.57;95309.19;5019219;28;21794;-89
2023/05/09 12:23:30;;;;;;;12.52;11.43;;;;;;;23.78;43.88;95306.13;5019225;28;20205;-90
2023/05/09 12:25:57;;;;;;;12.15;10.85;;;;;;;23.88;44.13;95305.28;5027933;28;20209;-88
2023/05/09 12:28:24;;;;;;;12.23;11.02;;;;;;;23.99;44.21;95298.97;5026861;28;20233;-90
2023/05/09 12:31:11;;;;;;;12.63;11.52;;;;;;;24.10;44.68;95295.25;5048018;28;20251;-89
2023/05/09 12:33:38;;;;;;;11.52;10.32;;;;;;;24.11;44.68;95287.09;5049851;28;20266;-90
2023/05/09 12:36:07;;;;;;;11.98;10.88;;;;;;;23.98;44.33;95286.88;5049806;28;20778;-90
2023/05/09 12:39:03;;;;;;;11.38;10.32;;;;;;;24.11;44.26;95281.81;5049484;28;20729;-91
2023/05/09 12:41:56;;;;;;;12.65;11.65;;;;;;;23.98;43.86;95279.78;5040660;28;20199;-90
2023/05/09 12:44:24;;;;;;;12.52;11.52;;;;;;;23.92;43.94;95275.56;4957552;28;20205;-90
2023/05/09 12:47:21;;;;;;;12.65;11.55;;;;;;;23.75;43.93;95269.84;5035943;28;20352;-89
2023/05/09 12:53:37;;;;;;;40.85;36.80;;;;;;;24.13;43.54;95254.47;4959277;28;20443;-90
2023/05/09 12:56:46;;;;;;;11.60;10.68;;;;;;;24.09;45.13;95251.56;5050554;28;20729;-89
2023/05/09 12:59:29;;;;;;;11.43;10.43;;;;;;;24.13;43.37;95262.34;5049968;28;20217;-90
2023/05/09 13:01:57;;;;;;;11.20;10.07;;;;;;;24.11;44.60;95244.19;5031044;28;20292;-89
2023/05/09 13:04:26;;;;;;;11.70;10.80;;;;;;;23.96;43.45;95239.00;5031611;28;20202;-89
2023/05/09 13:07:09;;;;;;;11.98;10.82;;;;;;;23.87;44.43;95236.13;5031601;28;20229;-89
2023/05/09 13:10:09;;;;;;;12.90;11.60;;;;;;;23.62;44.52;95236.22;5031693;28;20721;-89
2023/05/09 13:12:37;;;;;;;11.05;9.98;;;;;;;23.96;45.24;95233.75;5032893;28;20233;-90
2023/05/09 13:15:05;;;;;;;12.05;11.05;;;;;;;24.04;43.92;95234.00;5032567;28;20260;-90
2023/05/09 13:17:39;;;;;;;11.82;10.88;;;;;;;24.19;44.44;95224.44;5032754;28;20213;-89
2023/05/09 13:20:09;;;;;;;11.27;10.27;;;;;;;23.95;43.36;95219.81;5031686;28;20935;-89
2023/05/09 13:23:21;;;;;;;11.05;10.15;;;;;;;23.92;43.58;95214.28;5031899;28;20256;-89
2023/05/09 13:26:10;;;;;;;11.88;10.77;;;;;;;23.93;43.63;95207.97;5032943;28;20206;-89
2023/05/09 13:28:57;;;;;;;10.95;9.88;;;;;;;24.11;44.54;95210.78;5022856;28;20718;-90
2023/05/09 13:37:05;;;;;;;10.25;9.35;;;;;;;24.20;44.24;95195.25;5031003;28;20268;-89
2023/05/09 13:42:36;;;;;;;10.60;9.70;;;;;;;23.91;44.01;95189.06;4948444;28;20207;-89
2023/05/09 13:45:12;;;;;;;60.80;54.65;;;;;;;23.90;43.82;95190.09;5012480;28;20679;-91
2023/05/09 13:47:51;;;;;;;24.55;22.25;;;;;;;23.94;44.06;95181.41;5011558;28;20207;-89
2023/05/09 13:50:18;;;;;;;12.57;11.38;;;;;;;24.03;43.55;95177.19;5013021;28;20286;-89
2023/05/09 13:53:00;;;;;;;;;;;;;;;;;;;;;
2023/05/09 13:55:35;;;;;;;11.20;10.10;;;;;;;23.82;43.46;95165.19;5037649;28;20202;-90
2023/05/09 13:58:14;;;;;;;10.70;9.80;;;;;;;23.59;43.74;95168.41;5047487;28;20209;-89
2023/05/09 14:00:52;;;;;;;10.63;9.77;;;;;;;23.53;43.86;95164.22;5029276;28;20832;-89
2023/05/09 14:03:25;;;;;;;11.00;10.00;;;;;;;23.59;43.65;95163.94;5032055;28;20210;-90
2023/05/09 14:06:05;;;;;;;10.40;9.40;;;;;;;23.65;42.60;95154.19;5026908;28;20297;-89
2023/05/09 14:08:33;;;;;;;9.63;8.73;;;;;;;23.74;43.70;95150.72;5028271;28;20312;-89
2023/05/09 14:11:02;;;;;;;10.02;9.02;;;;;;;23.88;43.49;95132.53;5029325;28;20218;-90
2023/05/09 14:13:51;;;;;;;9.32;8.48;;;;;;;24.08;43.54;95152.66;5030213;28;20225;-89
2023/05/09 14:19:25;;;;;;;10.15;9.25;;;;;;;24.11;43.11;95145.03;5012335;28;20226;-90
2023/05/09 14:22:04;;;;;;;10.00;9.00;;;;;;;23.98;42.79;95139.59;5030001;28;20220;-89